Time;durP1;ratioP1;P1;durP2;ratioP2;P2;SDS_P1;SDS_P2;PMS_P1;PMS_P2;Temp;Humidity;BMP_temperature;BMP_pressure;BME280_temperature;BME280_humidity;BME280_pressure;Samples;Min_cycle;Max_cycle;Signal;HPM_P1;HPM_P2
2024/04/09 00:01:31;;;;;;;20.55;3.75;;;;;;;;;;5452471;26;20039;-76
2024/04/09 00:03:58;;;;;;;22.40;2.72;;;;;;;;;;5452842;26;19995;-76
2024/04/09 00:06:26;;;;;;;23.38;3.45;;;;;;;;;;5454170;26;19994;-76
2024/04/09 00:08:55;;;;;;;30.13;3.88;;;;;;;;;;5454120;26;20003;-76
2024/04/09 00:11:22;;;;;;;38.80;3.92;;;;;;;;;;5454230;26;20031;-76
2024/04/09 00:13:57;;;;;;;28.58;3.95;;;;;;;;;;5454298;26;20418;-76
2024/04/09 00:16:25;;;;;;;28.70;4.13;;;;;;;;;;5453985;26;20018;-76
2024/04/09 00:18:56;;;;;;;17.88;2.38;;;;;;;;;;5452426;26;20003;-76
2024/04/09 00:21:25;;;;;;;17.30;1.95;;;;;;;;;;5453936;26;20017;-75
2024/04/09 00:23:52;;;;;;;15.77;2.22;;;;;;;;;;5454056;26;19995;-76
2024/04/09 00:26:19;;;;;;;18.90;2.53;;;;;;;;;;5468991;26;20004;-75
2024/04/09 00:28:47;;;;;;;16.25;2.83;;;;;;;;;;5453596;26;20071;-75
2024/04/09 00:31:16;;;;;;;23.15;2.88;;;;;;;;;;5451991;26;20003;-76
2024/04/09 00:33:44;;;;;;;21.73;3.08;;;;;;;;;;5452243;26;20010;-76
2024/04/09 00:36:12;;;;;;;18.17;2.13;;;;;;;;;;5453446;26;20009;-76
2024/04/09 00:38:46;;;;;;;28.52;3.25;;;;;;;;;;5454264;26;20303;-76
2024/04/09 00:41:17;;;;;;;19.40;2.45;;;;;;;;;;5453244;26;20067;-76
2024/04/09 00:43:44;;;;;;;15.02;2.45;;;;;;;;;;5451968;26;19995;-76
2024/04/09 00:46:11;;;;;;;30.60;3.03;;;;;;;;;;5453366;26;19999;-76
2024/04/09 00:48:38;;;;;;;19.15;3.05;;;;;;;;;;5453594;26;20040;-76
2024/04/09 00:51:06;;;;;;;14.68;3.17;;;;;;;;;;5453482;26;20343;-75
2024/04/09 00:53:34;;;;;;;24.17;2.40;;;;;;;;;;5451952;26;20014;-76
2024/04/09 00:56:02;;;;;;;22.85;2.80;;;;;;;;;;5452032;26;20076;-76
2024/04/09 00:58:29;;;;;;;19.00;2.92;;;;;;;;;;5451437;26;20430;-76
2024/04/09 01:00:58;;;;;;;24.08;3.08;;;;;;;;;;5451598;26;20075;-76
2024/04/09 01:03:26;;;;;;;27.75;2.88;;;;;;;;;;5451215;26;20001;-76
2024/04/09 01:05:53;;;;;;;;;;;;;;;;;;5451960;26;19993;-76
2024/04/09 01:08:21;;;;;;;22.48;2.97;;;;;;;;;;5453029;26;19924;-76
2024/04/09 01:10:48;;;;;;;19.17;3.08;;;;;;;;;;5453298;26;20014;-76
2024/04/09 01:13:15;;;;;;;22.90;2.60;;;;;;;;;;5452843;26;20010;-77
2024/04/09 01:15:42;;;;;;;21.35;3.67;;;;;;;;;;5453352;26;20074;-76
2024/04/09 01:18:09;;;;;;;32.47;3.90;;;;;;;;;;5452752;26;20002;-76
2024/04/09 01:20:36;;;;;;;35.42;5.13;;;;;;;;;;5451490;26;20360;-76
2024/04/09 01:23:03;;;;;;;36.78;3.97;;;;;;;;;;5450931;26;20007;-76
2024/04/09 01:25:30;;;;;;;44.05;4.35;;;;;;;;;;5458709;26;20001;-75
2024/04/09 01:27:57;;;;;;;31.05;4.25;;;;;;;;;;5462223;26;20071;-76
2024/04/09 01:30:24;;;;;;;31.75;4.13;;;;;;;;;;5451079;26;20065;-76
2024/04/09 01:32:51;;;;;;;30.98;4.55;;;;;;;;;;5451187;26;20070;-76
2024/04/09 01:35:18;;;;;;;37.25;5.07;;;;;;;;;;5452277;26;20022;-76
2024/04/09 01:37:46;;;;;;;31.08;4.35;;;;;;;;;;5453064;26;20011;-76
2024/04/09 01:40:13;;;;;;;19.30;3.55;;;;;;;;;;5450543;26;20010;-76
2024/04/09 01:42:40;;;;;;;37.35;4.78;;;;;;;;;;5451077;26;20019;-76
2024/04/09 01:45:07;;;;;;;31.30;3.45;;;;;;;;;;5450646;26;20003;-76
2024/04/09 01:47:34;;;;;;;19.92;2.97;;;;;;;;;;5421147;26;20003;-77
2024/04/09 01:50:03;;;;;;;26.30;3.10;;;;;;;;;;5421512;26;19995;-76
2024/04/09 01:52:31;;;;;;;19.77;3.13;;;;;;;;;;5449679;26;19995;-76
2024/04/09 01:54:58;;;;;;;22.55;3.10;;;;;;;;;;5452974;26;20460;-75
2024/04/09 01:57:29;;;;;;;19.02;3.22;;;;;;;;;;5452167;26;20065;-76
2024/04/09 01:59:57;;;;;;;35.35;3.22;;;;;;;;;;5421134;26;19995;-76
2024/04/09 02:02:24;;;;;;;16.73;2.80;;;;;;;;;;5450344;26;20018;-76
2024/04/09 02:04:52;;;;;;;16.25;3.25;;;;;;;;;;5450658;26;19994;-75
2024/04/09 02:07:19;;;;;;;18.45;2.60;;;;;;;;;;5451859;26;19995;-76
2024/04/09 02:09:49;;;;;;;15.25;2.22;;;;;;;;;;5452629;26;20010;-75
2024/04/09 02:12:16;;;;;;;21.83;3.10;;;;;;;;;;5450646;26;20003;-76
2024/04/09 02:14:43;;;;;;;28.27;3.05;;;;;;;;;;5452490;26;20066;-76
2024/04/09 02:17:11;;;;;;;26.73;3.47;;;;;;;;;;5452080;26;20010;-75
2024/04/09 02:19:38;;;;;;;24.23;3.55;;;;;;;;;;5452256;26;20010;-75
2024/04/09 02:22:05;;;;;;;21.58;3.75;;;;;;;;;;5451970;26;19999;-75
2024/04/09 02:24:31;;;;;;;24.73;3.25;;;;;;;;;;5450346;26;19999;-76
2024/04/09 02:26:58;;;;;;;19.90;3.38;;;;;;;;;;5467641;26;20014;-76
2024/04/09 02:29:25;;;;;;;27.20;2.97;;;;;;;;;;5451430;26;19999;-76
2024/04/09 02:31:52;;;;;;;20.95;2.67;;;;;;;;;;5452268;26;20007;-75
2024/04/09 02:34:24;;;;;;;17.88;2.45;;;;;;;;;;5451738;26;20072;-76
2024/04/09 02:36:51;;;;;;;23.83;2.60;;;;;;;;;;5450396;26;20009;-76
2024/04/09 02:39:18;;;;;;;16.95;2.25;;;;;;;;;;5449687;26;20011;-76
2024/04/09 02:41:45;;;;;;;24.25;2.45;;;;;;;;;;5450143;26;20073;-76
2024/04/09 02:44:12;;;;;;;17.67;2.30;;;;;;;;;;5449879;26;20045;-75
2024/04/09 02:46:39;;;;;;;16.65;2.50;;;;;;;;;;5451939;26;20009;-75
2024/04/09 02:49:06;;;;;;;21.42;2.22;;;;;;;;;;5449666;26;19994;-75
2024/04/09 02:51:35;;;;;;;17.52;2.58;;;;;;;;;;5451834;26;20007;-76
2024/04/09 02:54:03;;;;;;;20.27;2.53;;;;;;;;;;5451762;26;20034;-76
2024/04/09 02:56:30;;;;;;;23.15;3.50;;;;;;;;;;5451505;26;19994;-76
2024/04/09 02:58:57;;;;;;;16.67;2.75;;;;;;;;;;5449735;26;20013;-75
2024/04/09 03:01:24;;;;;;;18.95;2.42;;;;;;;;;;5449062;26;20094;-75
2024/04/09 03:03:51;;;;;;;23.58;3.25;;;;;;;;;;5451510;26;19998;-76
2024/04/09 03:06:18;;;;;;;27.15;3.03;;;;;;;;;;5454518;26;19994;-76
2024/04/09 03:08:45;;;;;;;23.42;3.80;;;;;;;;;;5455153;26;19994;-76
2024/04/09 03:11:16;;;;;;;25.30;3.58;;;;;;;;;;5452998;26;20067;-76
2024/04/09 03:13:51;;;;;;;22.42;3.38;;;;;;;;;;5455090;26;19995;-75
2024/04/09 03:16:20;;;;;;;36.22;4.25;;;;;;;;;;5452663;26;20010;-76
2024/04/09 03:18:51;;;;;;;36.25;5.20;;;;;;;;;;5453077;26;20031;-76
2024/04/09 03:21:18;;;;;;;24.50;4.25;;;;;;;;;;5454559;26;20526;-76
2024/04/09 03:23:45;;;;;;;28.67;3.90;;;;;;;;;;5455041;26;20007;-76
2024/04/09 03:26:13;;;;;;;32.33;4.18;;;;;;;;;;5470026;26;20012;-76
2024/04/09 03:28:40;;;;;;;31.05;4.03;;;;;;;;;;5454694;26;19994;-76
2024/04/09 03:31:08;;;;;;;23.25;4.53;;;;;;;;;;5454433;26;20048;-75
2024/04/09 03:33:35;;;;;;;29.03;3.43;;;;;;;;;;5455020;26;20031;-76
2024/04/09 03:36:06;;;;;;;25.10;3.47;;;;;;;;;;5454817;26;20430;-76
2024/04/09 03:38:33;;;;;;;22.58;3.03;;;;;;;;;;5454646;26;20009;-76
2024/04/09 03:41:04;;;;;;;24.50;3.58;;;;;;;;;;5452908;26;19994;-76
2024/04/09 03:43:31;;;;;;;21.70;3.80;;;;;;;;;;5454549;26;20002;-76
2024/04/09 03:46:13;;;;;;;26.40;3.63;;;;;;;;;;5454940;26;20493;-76
2024/04/09 03:48:43;;;;;;;27.63;3.42;;;;;;;;;;5454700;26;19999;-76
2024/04/09 03:51:12;;;;;;;23.92;2.70;;;;;;;;;;5452528;26;20282;-77
2024/04/09 03:53:39;;;;;;;14.38;2.53;;;;;;;;;;5455051;26;19995;-75
2024/04/09 03:56:07;;;;;;;12.35;1.50;;;;;;;;;;5452469;26;20003;-75
2024/04/09 03:58:41;;;;;;;7.55;1.73;;;;;;;;;;5454528;26;20007;-76
2024/04/09 04:01:09;;;;;;;9.95;1.77;;;;;;;;;;5453683;26;20453;-76
2024/04/09 04:03:41;;;;;;;10.65;1.95;;;;;;;;;;5454404;26;20002;-75
2024/04/09 04:06:09;;;;;;;7.55;1.90;;;;;;;;;;5452229;26;20048;-76
2024/04/09 04:08:41;;;;;;;11.23;1.50;;;;;;;;;;5452430;26;20010;-76
2024/04/09 04:11:09;;;;;;;14.70;1.70;;;;;;;;;;5452296;26;20003;-75
2024/04/09 04:13:37;;;;;;;12.85;2.00;;;;;;;;;;5452881;26;20009;-76
2024/04/09 04:16:09;;;;;;;15.70;1.98;;;;;;;;;;5453001;26;20468;-74
2024/04/09 04:18:41;;;;;;;12.98;1.80;;;;;;;;;;5452562;26;20005;-76
2024/04/09 04:21:09;;;;;;;13.43;1.63;;;;;;;;;;5454028;26;20154;-76
2024/04/09 04:23:39;;;;;;;7.65;1.33;;;;;;;;;;5452239;26;19998;-76
2024/04/09 04:26:12;;;;;;;6.05;1.23;;;;;;;;;;5468004;26;20009;-75
2024/04/09 04:28:40;;;;;;;8.98;1.70;;;;;;;;;;5436882;26;20071;-76
2024/04/09 04:31:09;;;;;;;13.07;2.55;;;;;;;;;;5451846;26;20007;-75
2024/04/09 04:33:37;;;;;;;11.35;2.28;;;;;;;;;;5453902;26;20067;-76
2024/04/09 04:36:08;;;;;;;12.38;1.88;;;;;;;;;;5453656;26;20430;-78
2024/04/09 04:38:38;;;;;;;13.30;2.17;;;;;;;;;;5453706;26;19995;-76
2024/04/09 04:41:05;;;;;;;15.23;2.65;;;;;;;;;;5452408;26;20007;-76
2024/04/09 04:43:33;;;;;;;18.65;2.50;;;;;;;;;;5451983;26;20075;-76
2024/04/09 04:46:00;;;;;;;24.63;2.67;;;;;;;;;;5453586;26;20010;-76
2024/04/09 04:48:27;;;;;;;22.75;2.47;;;;;;;;;;5453169;26;20007;-76
2024/04/09 04:50:54;;;;;;;28.80;3.25;;;;;;;;;;5452064;26;20075;-76
2024/04/09 04:53:21;;;;;;;27.55;3.58;;;;;;;;;;5451934;26;20006;-76
2024/04/09 04:55:51;;;;;;;24.65;3.35;;;;;;;;;;5440741;26;20076;-76
2024/04/09 04:58:21;;;;;;;25.65;3.50;;;;;;;;;;5450624;26;20007;-78
2024/04/09 05:00:49;;;;;;;23.45;3.58;;;;;;;;;;5447827;26;20103;-76
2024/04/09 05:03:16;;;;;;;33.38;3.92;;;;;;;;;;5452453;26;20518;-76
2024/04/09 05:05:43;;;;;;;33.15;4.00;;;;;;;;;;5452854;26;20007;-76
2024/04/09 05:08:10;;;;;;;24.95;2.70;;;;;;;;;;5445706;26;20011;-75
2024/04/09 05:10:37;;;;;;;32.17;3.45;;;;;;;;;;5443336;26;19995;-76
2024/04/09 05:13:04;;;;;;;22.92;2.88;;;;;;;;;;5474195;26;20073;-75
2024/04/09 05:15:31;;;;;;;24.02;2.90;;;;;;;;;;5453573;26;20013;-76
2024/04/09 05:17:58;;;;;;;23.10;3.20;;;;;;;;;;5450989;26;19999;-75
2024/04/09 05:20:29;;;;;;;32.13;3.00;;;;;;;;;;5451257;26;20183;-76
2024/04/09 05:22:57;;;;;;;24.00;4.38;;;;;;;;;;5453516;26;20039;-76
2024/04/09 05:25:27;;;;;;;20.70;2.95;;;;;;;;;;5455874;26;20015;-76
2024/04/09 05:27:54;;;;;;;24.05;3.42;;;;;;;;;;5461730;26;20321;-76
2024/04/09 05:30:21;;;;;;;43.28;8.43;;;;;;;;;;5449446;26;20013;-76
2024/04/09 05:32:49;;;;;;;27.25;3.47;;;;;;;;;;5449550;26;19998;-76
2024/04/09 05:35:18;;;;;;;24.15;4.22;;;;;;;;;;5447329;26;19999;-76
2024/04/09 05:37:45;;;;;;;27.10;3.45;;;;;;;;;;5449521;26;20454;-76
2024/04/09 05:40:12;;;;;;;31.17;3.10;;;;;;;;;;5449253;26;20015;-76
2024/04/09 05:42:45;;;;;;;23.98;3.30;;;;;;;;;;5449700;26;20128;-76
2024/04/09 05:45:15;;;;;;;20.02;3.45;;;;;;;;;;5446387;26;20002;-75
2024/04/09 05:47:43;;;;;;;24.33;3.85;;;;;;;;;;5450801;26;20314;-76
2024/04/09 05:50:10;;;;;;;22.38;3.38;;;;;;;;;;5450610;26;20071;-76
2024/04/09 05:52:37;;;;;;;18.98;2.78;;;;;;;;;;5452688;26;20021;-76
2024/04/09 05:55:05;;;;;;;25.52;3.67;;;;;;;;;;5452779;26;20009;-76
2024/04/09 05:57:39;;;;;;;21.13;4.95;;;;;;;;;;5452484;26;20002;-76
2024/04/09 06:00:19;;;;;;;20.63;3.13;;;;;;;;;;5452241;26;20063;-76
2024/04/09 06:02:47;;;;;;;15.20;2.40;;;;;;;;;;5450965;26;20002;-75
2024/04/09 06:05:17;;;;;;;31.05;3.17;;;;;;;;;;5451938;26;20293;-76
2024/04/09 06:07:45;;;;;;;23.45;3.25;;;;;;;;;;5452634;26;19998;-76
2024/04/09 06:10:15;;;;;;;23.17;3.75;;;;;;;;;;5452172;26;20449;-75
2024/04/09 06:12:42;;;;;;;26.50;3.60;;;;;;;;;;5450469;26;20071;-76
2024/04/09 06:15:10;;;;;;;17.08;2.25;;;;;;;;;;5451942;26;20375;-76
2024/04/09 06:17:37;;;;;;;23.40;4.18;;;;;;;;;;5450741;26;20343;-76
2024/04/09 06:20:05;;;;;;;17.83;2.90;;;;;;;;;;5451919;26;19998;-76
2024/04/09 06:22:32;;;;;;;22.98;4.28;;;;;;;;;;5450271;26;20010;-76
2024/04/09 06:24:59;;;;;;;20.23;3.63;;;;;;;;;;5452559;26;20344;-76
2024/04/09 06:27:26;;;;;;;11.98;2.13;;;;;;;;;;5466631;26;20315;-76
2024/04/09 06:29:54;;;;;;;9.45;1.75;;;;;;;;;;5451984;26;20018;-76
2024/04/09 06:32:21;;;;;;;10.77;1.55;;;;;;;;;;5449664;26;20077;-76
2024/04/09 06:34:48;;;;;;;5.75;1.20;;;;;;;;;;5451864;26;19994;-76
2024/04/09 06:37:15;;;;;;;7.45;0.90;;;;;;;;;;5451795;26;19999;-76
2024/04/09 06:39:42;;;;;;;10.95;1.52;;;;;;;;;;5454164;26;20023;-76
2024/04/09 06:42:09;;;;;;;8.38;1.30;;;;;;;;;;5453072;26;20018;-76
2024/04/09 06:44:36;;;;;;;9.35;1.95;;;;;;;;;;5455659;26;20009;-76
2024/04/09 06:47:03;;;;;;;13.85;1.88;;;;;;;;;;5453770;26;20379;-76
2024/04/09 06:49:30;;;;;;;13.27;2.17;;;;;;;;;;5453176;26;20307;-76
2024/04/09 06:51:58;;;;;;;12.43;2.75;;;;;;;;;;5453755;26;19995;-76
2024/04/09 06:54:24;;;;;;;15.05;2.30;;;;;;;;;;5454825;26;20010;-76
2024/04/09 06:56:51;;;;;;;18.67;2.67;;;;;;;;;;5455556;26;19995;-76
2024/04/09 06:59:19;;;;;;;21.25;3.08;;;;;;;;;;5454670;26;20074;-76
2024/04/09 07:01:46;;;;;;;23.90;3.65;;;;;;;;;;5453241;26;20075;-76
2024/04/09 07:04:13;;;;;;;23.88;3.83;;;;;;;;;;5454918;26;20071;-76
2024/04/09 07:06:40;;;;;;;25.35;3.03;;;;;;;;;;5455335;26;20421;-75
2024/04/09 07:09:07;;;;;;;20.00;2.50;;;;;;;;;;5452957;26;20006;-76
2024/04/09 07:11:34;;;;;;;24.70;2.72;;;;;;;;;;5455218;26;20529;-75
2024/04/09 07:14:01;;;;;;;25.92;4.22;;;;;;;;;;5453309;26;20436;-77
2024/04/09 07:16:29;;;;;;;19.27;4.10;;;;;;;;;;5454700;26;20015;-76
2024/04/09 07:18:56;;;;;;;18.98;2.53;;;;;;;;;;5455305;26;19999;-76
2024/04/09 07:21:23;;;;;;;13.43;2.40;;;;;;;;;;5454676;26;20007;-75
2024/04/09 07:23:50;;;;;;;21.25;2.85;;;;;;;;;;5454882;26;20047;-76
2024/04/09 07:26:17;;;;;;;20.02;3.05;;;;;;;;;;5469654;26;20073;-76
2024/04/09 07:28:45;;;;;;;20.85;2.83;;;;;;;;;;5454626;26;19994;-76
2024/04/09 07:31:14;;;;;;;;;;;;;;;;;;5454784;26;19995;-76
2024/04/09 07:33:41;;;;;;;20.67;2.88;;;;;;;;;;5452969;26;19920;-76
2024/04/09 07:36:08;;;;;;;23.83;3.17;;;;;;;;;;5453933;26;19999;-76
2024/04/09 07:38:35;;;;;;;20.40;2.70;;;;;;;;;;5452886;26;20002;-76
2024/04/09 07:41:02;;;;;;;16.58;3.17;;;;;;;;;;5452841;26;20026;-76
2024/04/09 07:43:30;;;;;;;21.02;3.28;;;;;;;;;;5454297;26;20013;-76
2024/04/09 07:46:04;;;;;;;21.17;2.70;;;;;;;;;;5454522;26;20502;-76
2024/04/09 07:48:32;;;;;;;;;;;;;;;;;;5454951;26;20006;-75
2024/04/09 07:51:00;;;;;;;27.50;3.57;;;;;;;;;;5453088;26;19920;-76
2024/04/09 07:53:27;;;;;;;24.92;4.30;;;;;;;;;;5454049;26;20003;-76
2024/04/09 07:55:54;;;;;;;27.33;4.00;;;;;;;;;;5452029;26;20056;-76
2024/04/09 07:58:22;;;;;;;21.58;2.80;;;;;;;;;;5454441;26;19995;-76
2024/04/09 08:00:50;;;;;;;20.77;2.80;;;;;;;;;;5450859;26;20030;-76
2024/04/09 08:03:18;;;;;;;18.08;3.30;;;;;;;;;;5453469;26;20312;-76
2024/04/09 08:05:46;;;;;;;18.73;3.20;;;;;;;;;;5452477;26;19999;-76
2024/04/09 08:08:14;;;;;;;15.48;2.90;;;;;;;;;;5453732;26;20014;-75
2024/04/09 08:10:42;;;;;;;14.43;2.47;;;;;;;;;;5454263;26;20057;-76
2024/04/09 08:13:09;;;;;;;18.85;3.28;;;;;;;;;;5452036;26;20005;-76
2024/04/09 08:15:36;;;;;;;29.45;3.25;;;;;;;;;;5454299;26;20429;-76
2024/04/09 08:18:03;;;;;;;22.70;3.05;;;;;;;;;;5454424;26;20068;-76
2024/04/09 08:20:31;;;;;;;25.30;4.88;;;;;;;;;;5452273;26;20299;-76
2024/04/09 08:23:00;;;;;;;18.63;3.22;;;;;;;;;;5453824;26;20066;-76
2024/04/09 08:25:27;;;;;;;;;;;;;;;;;;5456472;26;20007;-76
2024/04/09 08:27:55;;;;;;;28.67;3.60;;;;;;;;;;5451654;26;19933;-76
2024/04/09 08:30:26;;;;;;;23.90;3.28;;;;;;;;;;5417654;26;20004;-76
2024/04/09 08:32:54;;;;;;;21.20;3.45;;;;;;;;;;5416170;26;19996;-76
2024/04/09 08:35:21;;;;;;;20.90;2.85;;;;;;;;;;5415596;26;19995;-76
2024/04/09 08:37:49;;;;;;;26.65;3.85;;;;;;;;;;5417911;26;20422;-76
2024/04/09 08:40:18;;;;;;;27.23;4.78;;;;;;;;;;5415516;26;20080;-76
2024/04/09 08:42:46;;;;;;;12.57;2.63;;;;;;;;;;5416023;26;19996;-76
2024/04/09 08:45:18;;;;;;;13.38;2.50;;;;;;;;;;5415341;26;19996;-76
2024/04/09 08:47:47;;;;;;;14.60;2.65;;;;;;;;;;5417993;26;20004;-75
2024/04/09 08:50:14;;;;;;;20.52;3.53;;;;;;;;;;5417236;26;20004;-76
2024/04/09 08:52:43;;;;;;;27.17;4.25;;;;;;;;;;5417630;26;19995;-75
2024/04/09 08:55:10;;;;;;;19.00;4.23;;;;;;;;;;5417149;26;19996;-76
2024/04/09 08:57:37;;;;;;;25.77;5.40;;;;;;;;;;5415707;26;20765;-76
2024/04/09 09:00:05;;;;;;;29.63;4.25;;;;;;;;;;5417575;26;20072;-76
2024/04/09 09:02:33;;;;;;;23.50;3.75;;;;;;;;;;5429421;26;20006;-76
2024/04/09 09:05:00;;;;;;;21.40;3.07;;;;;;;;;;5417364;26;20007;-75
2024/04/09 09:07:27;;;;;;;33.53;4.05;;;;;;;;;;5415270;26;19999;-76
2024/04/09 09:10:03;;;;;;;30.10;3.50;;;;;;;;;;5445825;26;20068;-76
2024/04/09 09:12:30;;;;;;;15.57;2.90;;;;;;;;;;5416897;26;20065;-76
2024/04/09 09:15:08;;;;;;;11.55;2.17;;;;;;;;;;5417467;26;20422;-76
2024/04/09 09:17:35;;;;;;;13.77;1.83;;;;;;;;;;5439856;26;20002;-75
2024/04/09 09:20:08;;;;;;;12.75;2.17;;;;;;;;;;5453358;26;20413;-76
2024/04/09 09:22:47;;;;;;;12.50;2.05;;;;;;;;;;5452577;26;19998;-76
2024/04/09 09:25:16;;;;;;;17.85;2.20;;;;;;;;;;5454343;26;20446;-76
2024/04/09 09:27:46;;;;;;;13.88;2.00;;;;;;;;;;5466240;26;20002;-76
2024/04/09 09:30:16;;;;;;;16.42;3.15;;;;;;;;;;5450773;26;19994;-76
2024/04/09 09:32:47;;;;;;;14.18;1.75;;;;;;;;;;5452842;26;20416;-77
2024/04/09 09:35:18;;;;;;;12.43;2.10;;;;;;;;;;5452554;26;20009;-76
2024/04/09 09:37:51;;;;;;;14.02;2.10;;;;;;;;;;5452658;26;20006;-76
2024/04/09 09:40:18;;;;;;;15.65;2.05;;;;;;;;;;5452265;26;19995;-76
2024/04/09 09:42:46;;;;;;;10.38;2.00;;;;;;;;;;5452617;26;19998;-76
2024/04/09 09:45:14;;;;;;;14.18;2.25;;;;;;;;;;5420973;26;20013;-76
2024/04/09 09:47:41;;;;;;;15.55;1.90;;;;;;;;;;5452608;26;19995;-76
2024/04/09 09:50:08;;;;;;;16.90;2.22;;;;;;;;;;5450699;26;19995;-75
2024/04/09 09:52:44;;;;;;;11.10;1.80;;;;;;;;;;5451199;26;20014;-75
2024/04/09 09:55:12;;;;;;;16.77;2.28;;;;;;;;;;5452197;26;19998;-76
2024/04/09 09:57:43;;;;;;;14.45;2.13;;;;;;;;;;5452565;26;20450;-76
2024/04/09 10:00:14;;;;;;;15.40;2.20;;;;;;;;;;5452280;26;20006;-76
2024/04/09 10:02:46;;;;;;;20.45;2.97;;;;;;;;;;5451830;26;20013;-76
2024/04/09 10:05:18;;;;;;;17.77;3.08;;;;;;;;;;5451956;26;20003;-76
2024/04/09 10:07:49;;;;;;;16.40;2.35;;;;;;;;;;5452416;26;19999;-75
2024/04/09 10:10:27;;;;;;;17.98;2.70;;;;;;;;;;5450145;26;20003;-76
2024/04/09 10:12:54;;;;;;;15.18;2.80;;;;;;;;;;5452186;26;19995;-76
2024/04/09 10:15:26;;;;;;;20.33;2.95;;;;;;;;;;5451518;26;20076;-75
2024/04/09 10:17:56;;;;;;;14.20;2.65;;;;;;;;;;5452436;26;19995;-75
2024/04/09 10:20:26;;;;;;;23.88;3.90;;;;;;;;;;5449921;26;20002;-76
2024/04/09 10:22:55;;;;;;;22.40;3.35;;;;;;;;;;5450395;26;20325;-76
2024/04/09 10:25:24;;;;;;;23.52;2.70;;;;;;;;;;5454601;26;19995;-76
2024/04/09 10:28:10;;;;;;;14.48;2.22;;;;;;;;;;5463002;26;19995;-76
2024/04/09 10:30:39;;;;;;;15.95;2.30;;;;;;;;;;5451618;26;20096;-76
2024/04/09 10:33:07;;;;;;;10.88;2.05;;;;;;;;;;5450057;26;20010;-75
2024/04/09 10:35:34;;;;;;;12.75;2.60;;;;;;;;;;5450300;26;20083;-76
2024/04/09 10:38:05;;;;;;;17.77;3.08;;;;;;;;;;5451615;26;20010;-76
2024/04/09 10:40:36;;;;;;;18.17;2.70;;;;;;;;;;5451484;26;20018;-76
2024/04/09 10:43:07;;;;;;;15.18;2.40;;;;;;;;;;5447307;26;19999;-76
2024/04/09 10:45:35;;;;;;;14.73;2.50;;;;;;;;;;5440396;26;19998;-77
2024/04/09 10:48:22;;;;;;;19.23;2.70;;;;;;;;;;5449482;26;20023;-76
2024/04/09 10:50:50;;;;;;;18.83;2.27;;;;;;;;;;5449386;26;20076;-75
2024/04/09 10:53:17;;;;;;;18.05;2.63;;;;;;;;;;5449398;26;20295;-76
2024/04/09 10:55:44;;;;;;;22.67;3.20;;;;;;;;;;5448111;26;19995;-75
2024/04/09 10:58:15;;;;;;;23.00;2.92;;;;;;;;;;5449193;26;20003;-76
2024/04/09 11:00:48;;;;;;;12.73;2.40;;;;;;;;;;5425833;26;20002;-76
2024/04/09 11:03:18;;;;;;;20.13;2.33;;;;;;;;;;5449356;26;20002;-78
2024/04/09 11:05:51;;;;;;;19.20;2.42;;;;;;;;;;5447924;26;20035;-79
2024/04/09 11:08:28;;;;;;;19.23;2.60;;;;;;;;;;5442589;26;20024;-76
2024/04/09 11:11:00;;;;;;;16.63;2.80;;;;;;;;;;5449361;26;19999;-76
2024/04/09 11:13:31;;;;;;;20.38;3.58;;;;;;;;;;5446882;26;20506;-76
2024/04/09 11:16:01;;;;;;;22.73;2.92;;;;;;;;;;5449682;26;19999;-76
2024/04/09 11:18:29;;;;;;;17.52;2.60;;;;;;;;;;5419455;26;20003;-76
2024/04/09 11:20:57;;;;;;;14.27;3.03;;;;;;;;;;5411667;26;20494;-76
2024/04/09 11:23:25;;;;;;;20.08;2.78;;;;;;;;;;5412586;26;20003;-76
2024/04/09 11:25:53;;;;;;;10.95;1.65;;;;;;;;;;5435684;26;20513;-76
2024/04/09 11:28:21;;;;;;;16.08;2.10;;;;;;;;;;5457932;26;19999;-76
2024/04/09 11:30:55;;;;;;;18.73;2.78;;;;;;;;;;5454907;26;20334;-75
2024/04/09 11:33:26;;;;;;;17.52;2.22;;;;;;;;;;5455020;26;20026;-75
2024/04/09 11:35:57;;;;;;;12.10;2.00;;;;;;;;;;5454863;26;20009;-75
2024/04/09 11:38:24;;;;;;;11.05;1.77;;;;;;;;;;5453768;26;20014;-75
2024/04/09 11:40:51;;;;;;;9.27;1.85;;;;;;;;;;5452851;26;20030;-77
2024/04/09 11:43:20;;;;;;;9.13;1.92;;;;;;;;;;5454002;26;20380;-76
2024/04/09 11:45:49;;;;;;;13.55;1.48;;;;;;;;;;5422942;26;20003;-76
2024/04/09 11:48:19;;;;;;;5.50;1.52;;;;;;;;;;5452414;26;19994;-76
2024/04/09 11:50:47;;;;;;;7.72;1.10;;;;;;;;;;5452520;26;20061;-75
2024/04/09 11:53:14;;;;;;;7.22;1.20;;;;;;;;;;5454036;26;20043;-76
2024/04/09 11:55:47;;;;;;;5.35;1.20;;;;;;;;;;5454380;26;19991;-75
2024/04/09 11:58:15;;;;;;;7.43;1.13;;;;;;;;;;5453674;26;19999;-75
2024/04/09 12:00:42;;;;;;;7.85;1.63;;;;;;;;;;5452391;26;20027;-75
2024/04/09 12:03:09;;;;;;;13.82;2.28;;;;;;;;;;5452215;26;19995;-75
2024/04/09 12:05:36;;;;;;;11.98;1.75;;;;;;;;;;5454400;26;19995;-76
2024/04/09 12:08:04;;;;;;;19.55;1.80;;;;;;;;;;5454152;26;20006;-76
2024/04/09 12:10:31;;;;;;;10.50;1.83;;;;;;;;;;5452126;26;20310;-76
2024/04/09 12:12:58;;;;;;;10.65;1.75;;;;;;;;;;5454278;26;20425;-76
2024/04/09 12:15:25;;;;;;;10.93;1.95;;;;;;;;;;5453579;26;20066;-77
2024/04/09 12:17:51;;;;;;;8.82;1.50;;;;;;;;;;5454131;26;20355;-76
2024/04/09 12:20:18;;;;;;;13.65;1.80;;;;;;;;;;5453628;26;20006;-76
2024/04/09 12:22:46;;;;;;;14.10;2.15;;;;;;;;;;5453998;26;20418;-76
2024/04/09 12:25:13;;;;;;;13.38;1.90;;;;;;;;;;5454568;26;20036;-76
2024/04/09 12:27:40;;;;;;;16.05;1.98;;;;;;;;;;5467212;26;19998;-76
2024/04/09 12:30:08;;;;;;;9.63;1.95;;;;;;;;;;5453281;26;20018;-76
2024/04/09 12:32:35;;;;;;;19.80;2.15;;;;;;;;;;5422615;26;20003;-76
2024/04/09 12:35:03;;;;;;;17.67;1.92;;;;;;;;;;5451845;26;20010;-76
2024/04/09 12:37:30;;;;;;;14.50;1.77;;;;;;;;;;5452404;26;19999;-75
2024/04/09 12:39:57;;;;;;;11.52;2.15;;;;;;;;;;5453979;26;19998;-76
2024/04/09 12:42:26;;;;;;;16.98;2.35;;;;;;;;;;5453193;26;20060;-76
2024/04/09 12:44:55;;;;;;;10.10;2.35;;;;;;;;;;5452015;26;20314;-76
2024/04/09 12:47:22;;;;;;;14.88;2.10;;;;;;;;;;5453171;26;19995;-76
2024/04/09 12:49:49;;;;;;;10.90;2.17;;;;;;;;;;5451630;26;20067;-76
2024/04/09 12:52:17;;;;;;;10.23;2.33;;;;;;;;;;5453151;26;20232;-76
2024/04/09 12:54:43;;;;;;;13.27;2.60;;;;;;;;;;5422031;26;20428;-76
2024/04/09 12:57:11;;;;;;;13.40;1.80;;;;;;;;;;5453112;26;20040;-76
2024/04/09 12:59:38;;;;;;;10.80;1.90;;;;;;;;;;5453170;26;19999;-76
2024/04/09 13:02:24;;;;;;;13.80;2.33;;;;;;;;;;5452775;26;20414;-76
2024/04/09 13:04:52;;;;;;;10.23;1.70;;;;;;;;;;5453567;26;20035;-76
2024/04/09 13:07:19;;;;;;;8.07;1.45;;;;;;;;;;5453005;26;19998;-76
2024/04/09 13:09:48;;;;;;;11.50;1.38;;;;;;;;;;5453359;26;20003;-76
2024/04/09 13:12:15;;;;;;;15.95;1.85;;;;;;;;;;5451257;26;19998;-76
2024/04/09 13:14:42;;;;;;;8.27;1.40;;;;;;;;;;5451731;26;20036;-76
2024/04/09 13:17:28;;;;;;;7.97;1.50;;;;;;;;;;5452872;26;20009;-76
2024/04/09 13:19:56;;;;;;;13.38;1.42;;;;;;;;;;5453060;26;20323;-75
2024/04/09 13:22:23;;;;;;;17.10;1.80;;;;;;;;;;5453150;26;19998;-75
2024/04/09 13:24:50;;;;;;;11.55;1.92;;;;;;;;;;5451050;26;20083;-76
2024/04/09 13:27:17;;;;;;;15.02;1.98;;;;;;;;;;5467739;26;20003;-77
2024/04/09 13:29:44;;;;;;;10.50;1.98;;;;;;;;;;5453004;26;20007;-76
2024/04/09 13:32:11;;;;;;;11.75;2.00;;;;;;;;;;5452599;26;20112;-76
2024/04/09 13:34:38;;;;;;;14.75;2.28;;;;;;;;;;5452790;26;20014;-76
2024/04/09 13:37:05;;;;;;;16.10;2.30;;;;;;;;;;5452715;26;20002;-77
2024/04/09 13:39:31;;;;;;;12.52;1.80;;;;;;;;;;5452817;26;20002;-76
2024/04/09 13:41:58;;;;;;;13.35;2.05;;;;;;;;;;5453055;26;19994;-76
2024/04/09 13:44:28;;;;;;;14.70;2.35;;;;;;;;;;5450863;26;20336;-76
2024/04/09 13:46:55;;;;;;;12.77;1.80;;;;;;;;;;5421116;26;20430;-75
2024/04/09 13:49:23;;;;;;;13.98;2.03;;;;;;;;;;5449387;26;20320;-76
2024/04/09 13:51:50;;;;;;;13.75;1.90;;;;;;;;;;5452678;26;19995;-76
2024/04/09 13:54:16;;;;;;;15.15;2.38;;;;;;;;;;5452399;26;20067;-76
2024/04/09 13:56:44;;;;;;;9.88;1.60;;;;;;;;;;5450805;26;20071;-76
2024/04/09 13:59:10;;;;;;;13.73;2.45;;;;;;;;;;5452058;26;20002;-76
2024/04/09 14:01:38;;;;;;;14.27;3.10;;;;;;;;;;5452496;26;20030;-76
2024/04/09 14:04:07;;;;;;;8.88;1.40;;;;;;;;;;5452161;26;19995;-76
2024/04/09 14:06:34;;;;;;;8.75;1.40;;;;;;;;;;5452141;26;20002;-76
2024/04/09 14:09:02;;;;;;;9.95;4.03;;;;;;;;;;5452689;26;20027;-76
2024/04/09 14:11:28;;;;;;;12.52;6.00;;;;;;;;;;5450296;26;20003;-76
2024/04/09 14:13:56;;;;;;;8.52;2.17;;;;;;;;;;5450843;26;19999;-75
2024/04/09 14:16:24;;;;;;;7.72;0.90;;;;;;;;;;5451760;26;20011;-76
2024/04/09 14:18:52;;;;;;;6.75;1.02;;;;;;;;;;5452236;26;20014;-76
2024/04/09 14:21:19;;;;;;;6.57;0.98;;;;;;;;;;5451856;26;20434;-76
2024/04/09 14:23:46;;;;;;;6.90;1.00;;;;;;;;;;5450391;26;20014;-76
2024/04/09 14:26:13;;;;;;;6.90;1.17;;;;;;;;;;5466834;26;19994;-75
2024/04/09 14:28:41;;;;;;;6.28;1.20;;;;;;;;;;5451909;26;20070;-76
2024/04/09 14:31:11;;;;;;;;;;;;;;;;;;5420934;26;20003;-76
2024/04/09 14:33:46;;;;;;;7.05;1.13;;;;;;;;;;5452136;26;19931;-76
2024/04/09 14:36:14;;;;;;;8.73;1.27;;;;;;;;;;5451552;26;19999;-76
2024/04/09 14:38:40;;;;;;;7.40;1.42;;;;;;;;;;5452110;26;20045;-76
2024/04/09 14:41:08;;;;;;;8.27;1.55;;;;;;;;;;5449800;26;20014;-76